Terminal Aerodrome Forecast
Issued by NWS

Home | Current Version | Previous Version | Text Only | Print | Product List | Glossary On
Versions: 1 2 3 4 5 6 7 8 9 10 11 12 13
545
FTUS45 KPSR 041121
TAFIPL
TAF
KIPL 041121Z 0412/0512 27005KT P6SM SKC
     FM041700 14010KT P6SM FEW250
     FM042100 16012G20KT P6SM FEW250
      TEMPO 0423/0502 15015G25KT
     FM050200 21015KT P6SM FEW250=

USA.gov is the U.S. government's official web portal to all federal, state and local government web resources and services.